Flight Track Log - Related Links

Times and Time Zones

All times are in EST time to prevent confusion due to time zone crossing. See the ASQ5941 flight status page for this flight to view local times or setup timezone preferences in your user account.

Time Position Orientation Groundspeed Altitude Reporting Facility
EST Latitude Longitude Course Direction KTS MPH feet Rate Location/Type
Thu 03:01:41 PM 42.0000 -87.9333 75° East 161 185 1,800  Level Chicago TRACON
Thu 03:02:35 PM 42.0500 -87.9167 14° North 225 259 3,600 1,364 Climbing Chicago TRACON
Thu 03:04:15 PM 42.1317 -87.8069 45° Northeast 266 306 5,300 1,519 Climbing Chicago Center
Thu 03:05:17 PM 42.1739 -87.7244 55° Northeast 282 325 7,700 2,032 Climbing Chicago Center
Thu 03:06:00 PM 41.9790 -87.0776 85° East  Level Estimated
Thu 03:06:19 PM 42.1650 -87.6167 96° East 291 335 9,500  Level Chicago Center
Thu 03:07:00 PM 42.0079 -86.9281 75° East  Level FlightAware Approximate
Thu 03:07:23 PM 42.1544 -87.4989 97° East 312 359 11,700  Level Chicago Center
Thu 03:08:24 PM 42.1428 -87.3808 98° East 317 365 13,800 1,805 Climbing Chicago Center
Thu 03:09:26 PM 42.1292 -87.2328 97° East 330 380 15,400 1,065 Climbing Chicago Center
Thu 03:10:28 PM 42.1153 -87.0933 98° East 368 423 16,000 919 Climbing Chicago Center
Thu 03:11:30 PM 42.1153 -86.9419 90° East 401 461 17,300 1,161 Climbing Chicago Center
Thu 03:12:32 PM 42.1217 -86.7906 87° East 405 466 18,400 1,258 Climbing Chicago Center
Thu 03:13:34 PM 42.1283 -86.6156 87° East 410 472 19,900 1,258 Climbing Chicago Center
Thu 03:14:36 PM 42.1336 -86.4583 87° East 417 480 21,000 960 Climbing Chicago Center
Thu 03:15:39 PM 42.1378 -86.2975 88° East 427 491 21,900 912 Climbing Chicago Center
Thu 03:16:41 PM 42.1428 -86.1339 88° East 435 501 22,900 1,016 Climbing Chicago Center
Thu 03:17:43 PM 42.1419 -85.9508 90° East 436 502 24,000 1,016 Climbing Chicago Center
Thu 03:18:45 PM 42.1408 -85.7856 90° East 443 510 25,000 968 Climbing Chicago Center
Thu 03:19:47 PM 42.1394 -85.6206 91° East 443 510 26,000 968 Climbing Chicago Center
Thu 03:20:49 PM 42.1375 -85.4544 91° East 446 513 27,000 919 Climbing Chicago Center
Thu 03:21:51 PM 42.1342 -85.2883 91° East 446 513 27,900 1,016 Climbing Chicago Center
Thu 03:22:53 PM 42.1350 -85.0861 90° East 453 521 29,100 1,065 Climbing Chicago Center
Thu 03:23:55 PM 42.1325 -84.9181 91° East 449 517 30,100 912 Climbing Chicago Center
Thu 03:24:58 PM 42.1311 -84.7481 91° East 455 524 31,000 912 Climbing Chicago Center
Thu 03:26:00 PM 42.1297 -84.5756 91° East 462 532 32,000 968 Climbing Chicago Center
Thu 03:27:02 PM 42.1283 -84.4006 91° East 468 539 33,000 991 Climbing Chicago Center
Thu 03:27:49 PM 42.1261 -84.2467 91° East 469 540 33,800 991 Climbing Cleveland Center
Thu 03:28:51 PM 42.1231 -84.0733 91° East 467 537 34,800 581 Climbing Cleveland Center
Thu 03:29:53 PM 42.1206 -83.8983 91° East 469 540 35,000 96 Climbing Cleveland Center
Thu 03:30:56 PM 42.1161 -83.6786 91° East 494 568 35,000  Level Cleveland Center
Thu 03:31:58 PM 42.1128 -83.4867 91° East 510 587 35,000  Level Cleveland Center
Thu 03:33:00 PM 42.1083 -83.2889 92° East 522 601 35,000  Level Cleveland Center
Thu 03:34:02 PM 42.1047 -83.1056 91° East 529 609 35,000  Level Cleveland Center
Thu 03:35:04 PM 42.0986 -82.8725 92° East 524 603 35,000  Level Cleveland Center
Thu 03:36:06 PM 42.0933 -82.6789 92° East 521 600 35,000  Level Cleveland Center
Thu 03:37:08 PM 42.0881 -82.4850 92° East 521 600 35,000  Level Cleveland Center
Thu 03:38:10 PM 42.0825 -82.2889 92° East 527 606 35,000  Level Cleveland Center
Thu 03:39:13 PM 42.0750 -82.0639 92° East 532 612 35,000  Level Cleveland Center
Thu 03:40:15 PM 42.0683 -81.8597 92° East 538 619 35,000  Level Cleveland Center
Thu 03:41:17 PM 42.0619 -81.6553 92° East 539 620 35,000  Level Cleveland Center
Thu 03:42:19 PM 42.0542 -81.4536 93° East 535 616 35,000  Level Cleveland Center
Thu 03:43:21 PM 42.0475 -81.2508 92° East 534 615 35,000  Level Cleveland Center
Thu 03:44:23 PM 42.0392 -81.0478 93° East 536 617 35,000  Level Cleveland Center
Thu 03:45:25 PM 42.0308 -80.8456 93° East 536 617 35,000  Level Cleveland Center
Thu 03:46:27 PM 42.0219 -80.6411 93° East 542 624 35,000  Level Cleveland Center
Thu 03:47:29 PM 42.0111 -80.3983 93° East 550 633 35,000  Level Cleveland Center
Thu 03:48:31 PM 42.0017 -80.1919 93° East 549 632 35,000  Level Cleveland Center
Thu 03:49:34 PM 41.9928 -79.9881 93° East 544 626 35,000  Level Cleveland Center
Thu 03:50:36 PM 41.9814 -79.7850 94° East 546 628 35,000  Level Cleveland Center
Thu 03:51:38 PM 41.9708 -79.5828 94° East 544 626 35,000  Level Cleveland Center
Thu 03:52:40 PM 41.9594 -79.3825 94° East 543 625 35,000  Level Cleveland Center
Thu 03:53:42 PM 41.9464 -79.1419 94° East 538 619 35,000 -387 Level Cleveland Center
Thu 03:54:44 PM 41.9775 -78.9417 78° East 552 635 34,200 -823 Descending Cleveland Center
Thu 03:55:46 PM 42.0086 -78.7414 78° East 550 633 33,300 -871 Descending Cleveland Center
Thu 03:56:48 PM 41.9894 -78.5503 98° East 523 602 32,400 -1,355 Descending Cleveland Center
Thu 03:57:50 PM 41.9553 -78.3586 103° East 525 604 30,500 -2,274 Descending Cleveland Center
Thu 03:58:52 PM 41.9208 -78.1661 103° East 521 600 27,700 -2,928 Descending Cleveland Center
Thu 03:59:55 PM 41.8825 -77.9497 103° East 513 590 24,400 -2,256 Descending Cleveland Center
Thu 04:00:57 PM 41.8444 -77.7739 106° East 497 572 23,000 -683 Descending Cleveland Center
Thu 04:01:58 PM 41.7997 -77.6044 109° East 492 566 23,000  Level New York Center
Thu 04:02:56 PM 41.7550 -77.4358 110° East 486 559 23,000 -555 Level New York Center
Thu 04:03:57 PM 41.7133 -77.2872 111° Southeast 480 552 21,900 -6,393 Descending New York Center
Thu 04:04:58 PM 41.6700 -77.1275 110° East 469 540 10,000 -2,529 Descending New York Center
Thu 04:05:58 PM 41.6322 -76.9767 108° East 445 512 16,800 2,118 Climbing New York Center
Thu 04:06:57 PM 41.6131 -76.8194 99° East 431 496 14,200 -2,824 Descending New York Center
Thu 04:07:57 PM 41.5989 -76.6461 96° East 423 487 11,200 -2,083 Descending New York Center
Thu 04:08:58 PM 41.5869 -76.5064 96° East 407 468 10,000 -793 Descending New York Center
Thu 04:09:58 PM 41.5775 -76.4003 97° East 347 399 9,600 -508 Descending New York Center
Thu 04:10:56 PM 41.5661 -76.2856 98° East 319 367 9,000 -1,119 Descending New York Center
Thu 04:11:56 PM 41.5553 -76.1628 97° East 307 353 7,400 -1,438 Descending New York Center
Thu 04:12:57 PM 41.5025 -76.0864 133° Southeast 277 319 6,100 -1,091 Descending New York Center
Thu 04:13:57 PM 41.4386 -76.0233 143° Southeast 277 319 5,200 -893 Descending New York Center
Thu 04:14:58 PM 41.3744 -75.9658 146° Southeast 284 327 4,300 -595 Descending New York Center
Thu 04:15:58 PM 41.3103 -75.9083 146° Southeast 278 320 4,000 -252 Descending New York Center
Thu 04:16:57 PM 41.2647 -75.8525 137° Southeast 254 292 3,800 -550 Descending New York Center
Thu 04:17:58 PM 41.2608 -75.7969 95° East 175 201 2,900 -857 Descending New York Center
Thu 04:18:56 PM 41.2872 -75.7686 39° Northeast 115 132 2,100 -814 Descending New York Center
Thu 04:19:56 PM 41.3175 -75.7403 35° Northeast 110 127 1,300 -446 Descending New York Center
Thu 04:20:57 PM 41.3333 -75.7083 57° Northeast 115 132 1,200 -98 Descending New York Center

Login

Don't have an account? Register now (free) for customized features, flight alerts, and more!